Time;durP1;ratioP1;P1;durP2;ratioP2;P2;SDS_P1;SDS_P2;PMS_P1;PMS_P2;Temp;Humidity;BMP_temperature;BMP_pressure;BME280_temperature;BME280_humidity;BME280_pressure;Samples;Min_cycle;Max_cycle;Signal;HPM_P1;HPM_P2
2023/03/09 00:00:31;;;;;;;;;;;1.70;92.20;;;;;;5030850;28;19909;-77
2023/03/09 00:02:56;;;;;;;;;;;1.60;92.30;;;;;;5027949;28;20027;-76
2023/03/09 00:05:22;;;;;;;;;;;1.60;92.40;;;;;;5018068;28;19960;-76
2023/03/09 00:07:47;;;;;;;;;;;1.60;92.50;;;;;;5013537;28;20675;-76
2023/03/09 00:10:13;;;;;;;;;;;1.50;92.50;;;;;;5024316;28;19948;-77
2023/03/09 00:12:39;;;;;;;;;;;1.50;92.50;;;;;;5026606;28;19925;-76
2023/03/09 00:15:05;;;;;;;;;;;1.40;92.50;;;;;;5027555;28;20695;-76
2023/03/09 00:17:30;;;;;;;;;;;1.40;92.60;;;;;;5011459;28;20288;-77
2023/03/09 00:20:03;;;;;;;;;;;1.60;93.00;;;;;;5019554;28;19921;-76
2023/03/09 00:22:28;;;;;;;;;;;1.70;92.90;;;;;;5010146;28;19968;-75
2023/03/09 00:24:55;;;;;;;;;;;1.80;92.60;;;;;;5019414;28;19914;-76
2023/03/09 00:27:21;;;;;;;;;;;1.80;92.40;;;;;;5030191;28;19906;-76
2023/03/09 00:29:46;;;;;;;;;;;1.70;92.30;;;;;;5022914;28;19916;-76
2023/03/09 00:32:12;;;;;;;;;;;1.70;92.50;;;;;;5017729;28;20004;-76
2023/03/09 00:34:37;;;;;;;;;;;1.60;92.60;;;;;;5010150;28;20024;-76
2023/03/09 00:37:03;;;;;;;;;;;1.90;92.80;;;;;;5028965;28;19919;-76
2023/03/09 00:39:28;;;;;;;;;;;2.00;92.20;;;;;;5026976;28;19920;-76
2023/03/09 00:41:53;;;;;;;;;;;1.80;92.10;;;;;;5026496;28;20443;-77
2023/03/09 00:44:19;;;;;;;;;;;1.90;92.50;;;;;;5009311;28;19913;-76
2023/03/09 00:46:44;;;;;;;;;;;1.90;92.60;;;;;;5016141;28;19935;-76
2023/03/09 00:49:11;;;;;;;;;;;1.90;92.50;;;;;;5009796;28;19924;-76
2023/03/09 00:51:37;;;;;;;;;;;2.00;92.60;;;;;;5014572;28;19917;-76
2023/03/09 00:54:02;;;;;;;;;;;2.00;92.50;;;;;;5013373;28;19917;-77
2023/03/09 00:56:29;;;;;;;;;;;2.00;92.30;;;;;;5024974;28;20011;-77
2023/03/09 00:58:56;;;;;;;;;;;2.00;92.10;;;;;;5021617;28;19913;-76
2023/03/09 01:01:21;;;;;;;;;;;1.90;92.10;;;;;;5012977;28;20568;-77
2023/03/09 01:03:47;;;;;;;;;;;1.90;92.20;;;;;;5014185;28;19992;-77
2023/03/09 01:06:13;;;;;;;;;;;1.80;92.30;;;;;;5015340;28;19913;-78
2023/03/09 01:08:39;;;;;;;;;;;1.90;92.20;;;;;;5024727;28;19992;-78
2023/03/09 01:11:06;;;;;;;;;;;2.00;92.40;;;;;;5020975;28;20435;-77
2023/03/09 01:13:32;;;;;;;;;;;1.80;92.30;;;;;;5021080;28;19921;-78
2023/03/09 01:15:57;;;;;;;;;;;1.80;92.40;;;;;;5013990;28;19917;-78
2023/03/09 01:18:22;;;;;;;;;;;1.90;92.40;;;;;;5027264;28;20355;-78
2023/03/09 01:20:48;;;;;;;;;;;2.00;92.60;;;;;;5024948;28;19913;-78
2023/03/09 01:23:13;;;;;;;;;;;1.90;92.50;;;;;;5011157;28;19941;-78
2023/03/09 01:25:39;;;;;;;;;;;2.00;92.30;;;;;;5026726;28;20388;-78
2023/03/09 01:28:04;;;;;;;;;;;1.90;92.40;;;;;;5022511;28;19936;-78
2023/03/09 01:30:31;;;;;;;;;;;1.90;92.30;;;;;;5017558;28;19948;-78
2023/03/09 01:32:56;;;;;;;;;;;2.00;92.40;;;;;;5017483;28;19925;-79
2023/03/09 01:35:22;;;;;;;;;;;1.90;92.30;;;;;;5030576;28;19921;-78
2023/03/09 01:37:47;;;;;;;;;;;1.90;92.40;;;;;;5019017;28;19948;-78
2023/03/09 01:40:18;;;;;;;;;;;2.00;92.50;;;;;;5021832;28;19914;-78
2023/03/09 01:42:43;;;;;;;;;;;2.10;92.30;;;;;;5024250;28;19913;-78
2023/03/09 01:45:12;;;;;;;;;;;2.00;92.20;;;;;;5019645;28;20066;-78
2023/03/09 01:47:37;;;;;;;;;;;2.00;92.30;;;;;;5024913;28;19913;-77
2023/03/09 01:50:04;;;;;;;;;;;2.00;92.30;;;;;;5029365;28;20653;-77
2023/03/09 01:52:32;;;;;;;;;;;2.10;92.50;;;;;;5032288;28;19917;-77
2023/03/09 01:55:02;;;;;;;;;;;2.10;92.40;;;;;;5014023;28;19976;-77
2023/03/09 01:57:32;;;;;;;;;;;1.90;92.20;;;;;;5018687;28;19914;-77
2023/03/09 02:00:08;;;;;;;;;;;1.90;92.10;;;;;;5022495;28;19917;-78
2023/03/09 02:02:36;;;;;;;;;;;1.90;92.20;;;;;;5025059;28;19920;-78
2023/03/09 02:05:04;;;;;;;;;;;2.00;92.10;;;;;;5020833;28;19918;-78
2023/03/09 02:07:30;;;;;;;;;;;2.00;92.20;;;;;;5026659;28;19921;-79
2023/03/09 02:09:59;;;;;;;;;;;1.90;92.20;;;;;;5024521;28;19967;-78
2023/03/09 02:12:25;;;;;;;;;;;1.90;92.30;;;;;;5018315;28;19942;-78
2023/03/09 02:14:51;;;;;;;;;;;1.90;92.30;;;;;;5015626;28;20011;-78
2023/03/09 02:17:17;;;;;;;;;;;2.00;92.40;;;;;;5018752;28;20070;-79
2023/03/09 02:20:06;;;;;;;;;;;2.10;92.40;;;;;;5023672;28;19913;-79
2023/03/09 02:22:35;;;;;;;;;;;2.00;92.20;;;;;;5019743;28;19913;-78
2023/03/09 02:25:26;;;;;;;;;;;1.90;92.10;;;;;;5019284;28;19921;-78
2023/03/09 02:27:52;;;;;;;;;;;1.80;92.00;;;;;;5008101;28;19928;-78
2023/03/09 02:30:18;;;;;;;;;;;2.00;92.30;;;;;;5027706;28;19917;-77
2023/03/09 02:32:44;;;;;;;;;;;1.90;92.20;;;;;;5022342;28;19924;-78
2023/03/09 02:35:09;;;;;;;;;;;1.80;92.20;;;;;;5013504;28;20008;-78
2023/03/09 02:37:36;;;;;;;;;;;1.90;92.30;;;;;;5027478;28;19998;-78
2023/03/09 02:40:13;;;;;;;;;;;2.00;92.20;;;;;;5016842;28;19975;-79
2023/03/09 02:42:39;;;;;;;;;;;2.00;92.30;;;;;;5025408;28;19913;-78
2023/03/09 02:45:05;;;;;;;;;;;2.10;92.30;;;;;;5028660;28;19978;-79
2023/03/09 02:47:31;;;;;;;;;;;2.10;92.20;;;;;;5025174;28;20512;-78
2023/03/09 02:49:56;;;;;;;;;;;2.00;92.00;;;;;;5015338;28;19925;-78
2023/03/09 02:52:22;;;;;;;;;;;2.10;92.10;;;;;;5027694;28;19918;-78
2023/03/09 02:54:47;;;;;;;;;;;2.10;92.00;;;;;;5028420;28;19919;-78
2023/03/09 02:57:13;;;;;;;;;;;2.10;91.90;;;;;;5031489;28;20312;-78
2023/03/09 02:59:39;;;;;;;;;;;2.00;91.80;;;;;;5023699;28;19918;-78
2023/03/09 03:02:04;;;;;;;;;;;2.10;91.90;;;;;;5012212;28;19917;-78
2023/03/09 03:04:30;;;;;;;;;;;2.20;91.80;;;;;;5005728;28;19914;-78
2023/03/09 03:06:56;;;;;;;;;;;2.30;91.80;;;;;;5031438;28;19913;-80
2023/03/09 03:09:21;;;;;;;;;;;2.30;91.60;;;;;;5020295;28;19999;-78
2023/03/09 03:11:47;;;;;;;;;;;2.30;91.50;;;;;;5003688;28;19989;-77
2023/03/09 03:14:12;;;;;;;;;;;2.40;91.40;;;;;;5023737;28;19920;-79
2023/03/09 03:16:38;;;;;;;;;;;2.40;91.50;;;;;;5022872;28;19914;-80
2023/03/09 03:19:03;;;;;;;;;;;2.40;91.60;;;;;;5013915;28;20621;-78
2023/03/09 03:21:29;;;;;;;;;;;2.50;91.50;;;;;;5020978;28;19990;-80
2023/03/09 03:23:54;;;;;;;;;;;2.50;91.50;;;;;;5027469;28;19972;-80
2023/03/09 03:26:20;;;;;;;;;;;2.60;91.30;;;;;;5030789;28;19915;-79
2023/03/09 03:28:45;;;;;;;;;;;2.70;91.00;;;;;;5023914;28;19945;-80
2023/03/09 03:31:11;;;;;;;;;;;2.70;90.50;;;;;;5025353;28;19977;-80
2023/03/09 03:33:36;;;;;;;;;;;2.60;90.30;;;;;;5035019;28;20398;-80
2023/03/09 03:36:02;;;;;;;;;;;2.60;90.50;;;;;;5024596;28;19913;-79
2023/03/09 03:38:28;;;;;;;;;;;2.50;90.80;;;;;;5028163;28;19914;-80
2023/03/09 03:40:53;;;;;;;;;;;2.40;90.80;;;;;;5015822;28;20400;-80
2023/03/09 03:43:18;;;;;;;;;;;2.40;90.70;;;;;;5011790;28;20435;-79
2023/03/09 03:45:44;;;;;;;;;;;2.40;90.80;;;;;;5031997;28;19913;-79
2023/03/09 03:48:09;;;;;;;;;;;2.40;90.90;;;;;;5034623;28;19936;-80
2023/03/09 03:50:35;;;;;;;;;;;2.40;91.00;;;;;;5020727;28;19968;-79
2023/03/09 03:53:01;;;;;;;;;;;2.50;91.00;;;;;;5024952;28;19952;-79
2023/03/09 03:55:27;;;;;;;;;;;2.50;91.00;;;;;;5019575;28;19917;-79
2023/03/09 03:57:52;;;;;;;;;;;2.70;90.40;;;;;;5019658;28;20365;-80
2023/03/09 04:00:19;;;;;;;;;;;2.50;90.30;;;;;;5020244;28;19916;-80
2023/03/09 04:02:45;;;;;;;;;;;2.50;90.60;;;;;;5011332;28;19913;-79
2023/03/09 04:05:10;;;;;;;;;;;2.50;90.70;;;;;;5009363;28;20452;-79
2023/03/09 04:07:36;;;;;;;;;;;2.40;90.80;;;;;;5033485;28;20012;-78
2023/03/09 04:10:01;;;;;;;;;;;2.40;90.90;;;;;;5021238;28;20008;-79
2023/03/09 04:12:27;;;;;;;;;;;2.50;90.90;;;;;;5005363;28;20438;-79
2023/03/09 04:15:08;;;;;;;;;;;2.50;90.90;;;;;;5008353;28;20016;-79
2023/03/09 04:17:33;;;;;;;;;;;2.50;90.90;;;;;;5028588;28;19949;-78
2023/03/09 04:19:59;;;;;;;;;;;2.50;90.90;;;;;;5020410;28;19917;-78
2023/03/09 04:22:24;;;;;;;;;;;2.50;91.00;;;;;;5004739;28;19920;-78
2023/03/09 04:24:50;;;;;;;;;;;2.60;91.00;;;;;;5011097;28;19960;-79
2023/03/09 04:27:15;;;;;;;;;;;2.50;90.90;;;;;;5026867;28;19917;-78
2023/03/09 04:29:41;;;;;;;;;;;2.50;91.00;;;;;;5020929;28;19909;-79
2023/03/09 04:32:06;;;;;;;;;;;2.50;91.00;;;;;;5005356;28;19921;-78
2023/03/09 04:34:32;;;;;;;;;;;2.50;91.10;;;;;;5002005;28;19913;-80
2023/03/09 04:36:57;;;;;;;;;;;2.50;91.10;;;;;;5006714;28;19956;-79
2023/03/09 04:39:23;;;;;;;;;;;2.50;90.80;;;;;;4994061;28;19916;-79
2023/03/09 04:41:48;;;;;;;;;;;2.40;91.00;;;;;;5001282;28;19924;-78
2023/03/09 04:44:14;;;;;;;;;;;2.50;90.80;;;;;;5013950;28;19917;-78
2023/03/09 04:46:39;;;;;;;;;;;2.50;90.80;;;;;;5013342;28;20008;-79
2023/03/09 04:49:05;;;;;;;;;;;2.50;90.90;;;;;;5015686;28;19921;-78
2023/03/09 04:51:30;;;;;;;;;;;2.50;91.00;;;;;;5032483;28;19920;-79
2023/03/09 04:53:56;;;;;;;;;;;2.50;90.90;;;;;;5035807;28;19917;-80
2023/03/09 04:56:21;;;;;;;;;;;2.60;90.80;;;;;;5040015;28;19913;-80
2023/03/09 04:58:47;;;;;;;;;;;2.50;90.80;;;;;;5025255;28;19925;-79
2023/03/09 05:01:13;;;;;;;;;;;2.50;90.90;;;;;;5028075;28;19983;-79
2023/03/09 05:03:38;;;;;;;;;;;2.50;90.80;;;;;;5023097;28;19913;-79
2023/03/09 05:06:04;;;;;;;;;;;2.50;90.80;;;;;;5026165;28;19919;-78
2023/03/09 05:08:29;;;;;;;;;;;2.50;90.70;;;;;;5026883;28;19953;-79
2023/03/09 05:10:55;;;;;;;;;;;2.60;90.90;;;;;;5020320;28;19935;-79
2023/03/09 05:13:20;;;;;;;;;;;2.60;90.80;;;;;;5020072;28;19953;-79
2023/03/09 05:15:46;;;;;;;;;;;2.60;90.70;;;;;;5004134;28;19918;-79
2023/03/09 05:18:11;;;;;;;;;;;2.70;90.80;;;;;;5015409;28;19921;-78
2023/03/09 05:20:37;;;;;;;;;;;2.60;90.60;;;;;;5022328;28;19931;-78
2023/03/09 05:23:03;;;;;;;;;;;2.60;90.60;;;;;;5029682;28;20246;-79
2023/03/09 05:25:28;;;;;;;;;;;2.60;90.40;;;;;;5024380;28;19920;-79
2023/03/09 05:27:54;;;;;;;;;;;2.60;90.60;;;;;;5027667;28;19924;-78
2023/03/09 05:30:19;;;;;;;;;;;2.50;90.40;;;;;;5003929;28;20008;-78
2023/03/09 05:32:45;;;;;;;;;;;2.40;90.70;;;;;;5029838;28;19955;-80
2023/03/09 05:35:11;;;;;;;;;;;2.50;90.80;;;;;;5052474;28;19910;-80
2023/03/09 05:37:36;;;;;;;;;;;2.30;90.50;;;;;;5039913;28;19923;-79
2023/03/09 05:40:04;;;;;;;;;;;2.40;90.80;;;;;;5009886;28;19956;-79
2023/03/09 05:42:30;;;;;;;;;;;2.40;90.60;;;;;;5026164;28;19919;-79
2023/03/09 05:44:56;;;;;;;;;;;2.50;90.90;;;;;;5032326;28;20415;-79
2023/03/09 05:47:21;;;;;;;;;;;2.50;90.60;;;;;;5033042;28;19913;-79
2023/03/09 05:49:50;;;;;;;;;;;2.40;90.60;;;;;;5048392;23;19947;-89
2023/03/09 05:52:15;;;;;;;;;;;2.20;90.60;;;;;;5017433;28;20016;-89
2023/03/09 05:54:41;;;;;;;;;;;2.30;91.10;;;;;;5016350;28;20031;-89
2023/03/09 05:57:07;;;;;;;;;;;2.40;91.30;;;;;;5030224;28;19959;-89
2023/03/09 05:59:39;;;;;;;;;;;2.40;91.10;;;;;;5035207;28;20000;-90
2023/03/09 06:02:05;;;;;;;;;;;2.30;91.10;;;;;;5028007;28;19921;-89
2023/03/09 06:04:35;;;;;;;;;;;2.40;91.30;;;;;;5035591;28;19909;-89
2023/03/09 06:07:01;;;;;;;;;;;2.40;91.20;;;;;;5035493;28;20004;-88
2023/03/09 06:09:29;;;;;;;;;;;2.30;91.20;;;;;;5030258;28;20003;-90
2023/03/09 06:18:01;;;;;;;;;;;2.60;91.00;;;;;;5026699;23;19929;-81
2023/03/09 06:20:27;;;;;;;;;;;2.60;91.10;;;;;;5005900;28;19932;-80
2023/03/09 06:22:52;;;;;;;;;;;2.80;90.90;;;;;;5011442;28;19914;-79
2023/03/09 06:25:17;;;;;;;;;;;2.60;90.70;;;;;;5015505;28;19919;-80
2023/03/09 06:27:43;;;;;;;;;;;2.60;90.60;;;;;;5016265;28;20454;-80
2023/03/09 06:30:09;;;;;;;;;;;2.60;90.70;;;;;;5011308;28;20012;-81
2023/03/09 06:32:34;;;;;;;;;;;2.60;90.80;;;;;;5007930;28;19965;-80
2023/03/09 06:35:00;;;;;;;;;;;2.50;90.80;;;;;;5004950;28;19914;-80
2023/03/09 06:39:56;;;;;;;;;;;2.50;90.50;;;;;;5111899;22;19930;-90
2023/03/09 06:42:25;;;;;;;;;;;2.60;90.90;;;;;;4995197;28;19929;-92
2023/03/09 06:44:50;;;;;;;;;;;2.60;90.40;;;;;;4993382;28;19914;-91
2023/03/09 06:47:15;;;;;;;;;;;2.60;90.60;;;;;;4993970;28;19910;-89
2023/03/09 06:49:43;;;;;;;;;;;2.70;90.70;;;;;;4993534;28;20008;-88
2023/03/09 06:52:09;;;;;;;;;;;2.80;90.60;;;;;;4988156;28;19914;-87
2023/03/09 06:54:35;;;;;;;;;;;2.60;90.40;;;;;;5009357;23;19940;-80
2023/03/09 06:57:00;;;;;;;;;;;2.60;90.70;;;;;;5009216;28;19902;-78
2023/03/09 06:59:28;;;;;;;;;;;2.80;90.70;;;;;;5000955;28;19922;-80
2023/03/09 07:01:53;;;;;;;;;;;2.70;90.60;;;;;;5012016;28;19922;-79
2023/03/09 07:04:19;;;;;;;;;;;2.80;90.60;;;;;;4998997;28;19914;-78
2023/03/09 07:06:44;;;;;;;;;;;2.80;90.70;;;;;;4998977;28;19910;-78
2023/03/09 07:09:10;;;;;;;;;;;2.80;90.60;;;;;;4994634;28;19960;-80
2023/03/09 07:11:35;;;;;;;;;;;2.80;90.50;;;;;;4981590;28;19948;-80
2023/03/09 07:14:00;;;;;;;;;;;2.80;90.70;;;;;;4978355;28;19929;-78
2023/03/09 07:16:27;;;;;;;;;;;2.80;90.60;;;;;;5009735;28;19905;-79
2023/03/09 07:18:54;;;;;;;;;;;2.70;90.60;;;;;;4992919;28;19914;-78
2023/03/09 07:21:22;;;;;;;;;;;2.70;90.70;;;;;;5000687;28;19981;-78
2023/03/09 07:23:47;;;;;;;;;;;3.00;90.70;;;;;;4988128;28;19913;-81
2023/03/09 07:26:13;;;;;;;;;;;3.00;90.50;;;;;;5003517;28;19914;-81
2023/03/09 07:28:38;;;;;;;;;;;3.00;90.30;;;;;;4987078;28;19921;-81
2023/03/09 07:31:11;;;;;;;;;;;3.10;90.50;;;;;;4975421;28;19925;-81
2023/03/09 07:33:36;;;;;;;;;;;3.10;90.20;;;;;;4985614;28;19929;-82
2023/03/09 07:36:06;;;;;;;;;;;3.10;90.10;;;;;;4979133;28;19913;-82
2023/03/09 07:38:32;;;;;;;;;;;3.00;89.80;;;;;;4979545;28;19917;-80
2023/03/09 07:40:57;;;;;;;;;;;2.80;89.90;;;;;;4996294;28;20005;-81
2023/03/09 07:43:23;;;;;;;;;;;3.00;90.40;;;;;;4980297;28;20528;-81
2023/03/09 07:45:48;;;;;;;;;;;3.00;90.30;;;;;;4997414;28;19937;-80
2023/03/09 07:48:15;;;;;;;;;;;3.10;90.00;;;;;;4979980;28;19910;-80
2023/03/09 07:50:41;;;;;;;;;;;3.20;89.90;;;;;;4984315;28;19947;-82
2023/03/09 07:53:10;;;;;;;;;;;3.20;90.00;;;;;;4984148;28;19940;-82
2023/03/09 07:55:38;;;;;;;;;;;3.10;89.90;;;;;;4996931;28;19914;-78
2023/03/09 07:58:04;;;;;;;;;;;2.90;89.60;;;;;;4976949;28;19913;-79
2023/03/09 08:00:31;;;;;;;;;;;3.00;90.00;;;;;;4996899;28;19913;-82
2023/03/09 08:02:57;;;;;;;;;;;3.20;90.00;;;;;;4996335;28;19964;-81
2023/03/09 08:05:22;;;;;;;;;;;3.20;89.60;;;;;;4979136;28;19941;-81
2023/03/09 08:07:49;;;;;;;;;;;3.30;89.50;;;;;;4977231;28;19918;-80
2023/03/09 08:10:15;;;;;;;;;;;3.30;90.00;;;;;;4994759;28;20021;-80
2023/03/09 08:12:43;;;;;;;;;;;3.40;90.10;;;;;;4995677;28;20352;-80
2023/03/09 08:15:09;;;;;;;;;;;3.50;89.80;;;;;;4996153;28;19914;-82
2023/03/09 08:17:34;;;;;;;;;;;3.50;89.50;;;;;;4995580;28;19963;-82
2023/03/09 08:20:00;;;;;;;;;;;3.50;89.30;;;;;;4974116;28;19914;-81
2023/03/09 08:22:25;;;;;;;;;;;3.50;89.20;;;;;;4974856;28;20293;-81
2023/03/09 08:24:51;;;;;;;;;;;3.20;89.10;;;;;;4974888;28;19918;-80
2023/03/09 08:27:19;;;;;;;;;;;3.00;89.30;;;;;;5015122;28;19909;-81
2023/03/09 08:29:47;;;;;;;;;;;3.20;89.70;;;;;;5008568;28;19978;-79
2023/03/09 08:32:16;;;;;;;;;;;3.20;89.70;;;;;;4996269;28;19921;-80
2023/03/09 08:34:41;;;;;;;;;;;3.40;89.50;;;;;;4971179;28;19917;-81
2023/03/09 08:37:06;;;;;;;;;;;3.50;89.20;;;;;;4983045;28;20004;-81
2023/03/09 08:39:32;;;;;;;;;;;3.40;89.10;;;;;;4976766;28;19909;-82
2023/03/09 08:41:57;;;;;;;;;;;3.20;89.30;;;;;;4972437;28;19914;-81
2023/03/09 08:44:23;;;;;;;;;;;3.20;89.50;;;;;;4971306;28;19937;-81
2023/03/09 08:46:49;;;;;;;;;;;3.30;89.60;;;;;;5074253;22;19967;-86
2023/03/09 08:49:14;;;;;;;;;;;3.50;89.70;;;;;;5033136;28;19928;-87
2023/03/09 08:51:39;;;;;;;;;;;3.50;89.40;;;;;;5012679;28;19917;-85
2023/03/09 08:54:05;;;;;;;;;;;3.60;89.50;;;;;;5020472;28;19927;-86
2023/03/09 08:56:30;;;;;;;;;;;3.60;89.20;;;;;;5013372;28;19916;-86
2023/03/09 08:58:56;;;;;;;;;;;3.60;88.90;;;;;;5009016;28;19984;-86
2023/03/09 09:01:22;;;;;;;;;;;3.70;89.00;;;;;;5038325;28;19916;-86
2023/03/09 09:03:48;;;;;;;;;;;3.60;89.00;;;;;;5049041;28;19922;-84
2023/03/09 09:06:14;;;;;;;;;;;3.50;88.80;;;;;;5024733;28;20413;-86
2023/03/09 09:08:40;;;;;;;;;;;3.30;88.60;;;;;;5010823;28;19917;-85
2023/03/09 09:11:10;;;;;;;;;;;3.30;88.90;;;;;;5007070;28;19918;-84
2023/03/09 09:13:36;;;;;;;;;;;3.20;89.00;;;;;;5031697;28;19917;-86
2023/03/09 09:16:05;;;;;;;;;;;3.10;89.20;;;;;;5031096;28;19967;-86
2023/03/09 09:18:31;;;;;;;;;;;3.30;89.40;;;;;;5014111;28;19921;-85
2023/03/09 09:20:57;;;;;;;;;;;3.60;90.00;;;;;;5031763;28;19914;-86
2023/03/09 09:23:23;;;;;;;;;;;3.70;89.00;;;;;;5014507;28;19909;-86
2023/03/09 09:25:55;;;;;;;;;;;3.70;88.90;;;;;;5030239;28;19956;-84
2023/03/09 09:28:21;;;;;;;;;;;3.70;88.80;;;;;;5013245;28;20000;-85
2023/03/09 09:30:52;;;;;;;;;;;3.80;88.70;;;;;;5031855;28;19948;-86
2023/03/09 09:33:17;;;;;;;;;;;3.80;88.70;;;;;;5015230;28;19917;-88
2023/03/09 09:35:53;;;;;;;;;;;3.80;88.50;;;;;;5015311;28;19916;-89
2023/03/09 09:38:18;;;;;;;;;;;3.80;88.60;;;;;;5002486;28;19955;-87
2023/03/09 09:40:44;;;;;;;;;;;3.80;88.40;;;;;;5013864;28;19909;-87
2023/03/09 09:43:09;;;;;;;;;;;3.90;88.20;;;;;;5020978;28;19906;-89
2023/03/09 09:45:35;;;;;;;;;;;3.90;88.30;;;;;;5019642;28;19909;-90
2023/03/09 09:48:03;;;;;;;;;;;3.90;88.30;;;;;;5013923;28;19917;-88
2023/03/09 09:50:41;;;;;;;;;;;4.10;88.60;;;;;;5016448;28;19910;-88
2023/03/09 09:53:27;;;;;;;;;;;4.30;88.10;;;;;;5016167;28;19913;-87
2023/03/09 09:55:53;;;;;;;;;;;4.60;87.80;;;;;;5020539;28;19955;-89
2023/03/09 09:58:31;;;;;;;;;;;4.50;87.10;;;;;;5027236;28;19921;-88
2023/03/09 10:00:57;;;;;;;;;;;4.50;87.10;;;;;;5028943;28;19914;-89
2023/03/09 10:03:23;;;;;;;;;;;4.60;87.10;;;;;;5015556;28;19910;-89
2023/03/09 10:05:55;;;;;;;;;;;4.80;87.00;;;;;;5014803;28;19909;-89
2023/03/09 10:08:29;;;;;;;;;;;4.80;86.90;;;;;;5020694;28;19916;-87
2023/03/09 10:10:59;;;;;;;;;;;4.90;87.30;;;;;;5020438;28;19910;-88
2023/03/09 10:13:34;;;;;;;;;;;4.80;87.00;;;;;;5020645;28;19963;-88
2023/03/09 10:16:02;;;;;;;;;;;4.80;86.90;;;;;;5019709;28;20340;-88
2023/03/09 10:18:33;;;;;;;;;;;4.80;86.70;;;;;;5015390;28;20298;-86
2023/03/09 10:20:59;;;;;;;;;;;4.60;86.60;;;;;;5033673;28;19957;-86
2023/03/09 10:23:32;;;;;;;;;;;4.60;86.80;;;;;;5019990;28;19916;-87
2023/03/09 10:26:18;;;;;;;;;;;4.70;87.50;;;;;;5018720;28;19916;-87
2023/03/09 10:28:47;;;;;;;;;;;4.90;87.50;;;;;;5014927;28;20007;-86
2023/03/09 10:31:17;;;;;;;;;;;5.00;86.50;;;;;;5018524;28;19913;-86
2023/03/09 10:33:42;;;;;;;;;;;5.10;86.40;;;;;;5019088;28;19913;-86
2023/03/09 10:36:15;;;;;;;;;;;5.00;86.50;;;;;;5018186;28;19920;-86
2023/03/09 10:38:48;;;;;;;;;;;5.00;86.70;;;;;;4999563;28;19917;-87
2023/03/09 10:41:14;;;;;;;;;;;5.00;86.60;;;;;;5013676;28;19922;-87
2023/03/09 10:43:40;;;;;;;;;;;5.10;86.60;;;;;;5019440;28;19972;-87
2023/03/09 10:46:16;;;;;;;;;;;5.00;86.50;;;;;;5018576;28;19920;-88
2023/03/09 10:48:42;;;;;;;;;;;4.90;86.60;;;;;;5014388;28;19914;-88
2023/03/09 10:51:23;;;;;;;;;;;4.80;86.70;;;;;;5018628;28;19909;-89
2023/03/09 10:53:49;;;;;;;;;;;4.70;86.60;;;;;;5037789;28;19936;-90
2023/03/09 10:56:24;;;;;;;;;;;4.60;86.70;;;;;;5035027;28;20234;-89
2023/03/09 10:59:07;;;;;;;;;;;4.50;87.60;;;;;;5016275;28;19914;-88
2023/03/09 11:01:52;;;;;;;;;;;4.50;87.70;;;;;;5017250;28;19909;-88
2023/03/09 11:04:21;;;;;;;;;;;4.50;88.10;;;;;;5015710;28;20430;-88
2023/03/09 11:06:48;;;;;;;;;;;4.50;88.50;;;;;;5009713;28;19921;-87
2023/03/09 11:09:17;;;;;;;;;;;4.50;88.60;;;;;;5016866;28;19914;-87
2023/03/09 11:11:47;;;;;;;;;;;4.60;88.70;;;;;;5016666;28;20405;-86
2023/03/09 11:14:18;;;;;;;;;;;4.60;88.70;;;;;;5030651;28;19925;-84
2023/03/09 11:16:49;;;;;;;;;;;4.70;88.90;;;;;;5033411;28;19955;-86
2023/03/09 11:19:16;;;;;;;;;;;4.80;88.70;;;;;;5036324;28;20018;-86
2023/03/09 11:21:57;;;;;;;;;;;4.80;88.40;;;;;;5025959;28;19913;-85
2023/03/09 11:24:28;;;;;;;;;;;4.70;88.10;;;;;;5050678;28;19923;-84
2023/03/09 11:27:15;;;;;;;;;;;4.90;88.20;;;;;;5013798;28;20375;-86
2023/03/09 11:29:51;;;;;;;;;;;5.00;88.30;;;;;;5004299;28;19976;-83
2023/03/09 11:32:16;;;;;;;;;;;5.10;88.40;;;;;;5018906;28;19918;-85
2023/03/09 11:34:43;;;;;;;;;;;5.20;87.90;;;;;;5058408;28;19979;-85
2023/03/09 11:37:12;;;;;;;;;;;5.30;87.20;;;;;;5025261;28;20012;-85
2023/03/09 11:39:53;;;;;;;;;;;5.10;87.20;;;;;;5021050;28;19913;-85
2023/03/09 11:42:45;;;;;;;;;;;5.00;87.60;;;;;;5033182;28;19915;-85
2023/03/09 11:45:19;;;;;;;;;;;5.00;87.60;;;;;;5041712;28;20443;-83
2023/03/09 11:47:48;;;;;;;;;;;4.90;87.90;;;;;;5029847;28;19921;-84
2023/03/09 11:50:13;;;;;;;;;;;4.80;88.90;;;;;;5043038;23;19925;-73
2023/03/09 11:52:44;;;;;;;;;;;4.80;88.80;;;;;;5027403;28;19944;-73
2023/03/09 11:55:15;;;;;;;;;;;4.80;88.70;;;;;;5005267;28;19917;-73
2023/03/09 11:57:43;;;;;;;;;;;4.80;88.30;;;;;;5027036;28;20402;-73
2023/03/09 12:00:12;;;;;;;;;;;5.00;88.30;;;;;;5031337;28;20008;-73
2023/03/09 12:02:44;;;;;;;;;;;5.20;88.40;;;;;;5012160;28;19917;-73
2023/03/09 12:05:11;;;;;;;;;;;5.30;88.10;;;;;;5030753;28;19917;-73
2023/03/09 12:07:41;;;;;;;;;;;5.50;87.70;;;;;;5029375;28;20316;-73
2023/03/09 12:10:12;;;;;;;;;;;5.30;87.00;;;;;;5025039;28;20265;-73
2023/03/09 12:12:44;;;;;;;;;;;5.40;86.60;;;;;;5027130;28;19975;-74
2023/03/09 12:15:36;;;;;;;;;;;5.30;86.40;;;;;;5027105;28;19939;-76
2023/03/09 12:18:04;;;;;;;;;;;5.20;86.60;;;;;;5020078;28;19924;-76
2023/03/09 12:20:34;;;;;;;;;;;5.40;87.00;;;;;;5030204;28;19963;-76
2023/03/09 12:22:59;;;;;;;;;;;5.40;86.90;;;;;;5030080;28;19964;-75
2023/03/09 12:25:25;;;;;;;;;;;5.40;87.10;;;;;;5027981;28;20372;-75
2023/03/09 12:27:59;;;;;;;;;;;5.40;87.40;;;;;;5008641;28;19921;-76
2023/03/09 12:30:25;;;;;;;;;;;5.30;87.50;;;;;;5003525;28;19921;-75
2023/03/09 12:32:50;;;;;;;;;;;5.30;87.90;;;;;;5028979;28;20533;-75
2023/03/09 12:35:19;;;;;;;;;;;5.10;87.90;;;;;;5009913;28;19967;-73
2023/03/09 12:37:44;;;;;;;;;;;5.10;88.40;;;;;;5029885;28;19917;-73
2023/03/09 12:40:16;;;;;;;;;;;5.00;88.70;;;;;;5027167;28;19913;-74
2023/03/09 12:42:43;;;;;;;;;;;5.10;89.10;;;;;;5024699;28;19928;-73
2023/03/09 12:45:11;;;;;;;;;;;5.20;89.10;;;;;;5006902;28;19917;-73
2023/03/09 12:47:58;;;;;;;;;;;5.30;88.90;;;;;;5020526;28;19913;-74
2023/03/09 12:50:26;;;;;;;;;;;5.50;88.60;;;;;;5026188;28;19917;-76
2023/03/09 12:52:51;;;;;;;;;;;5.50;88.20;;;;;;5024020;28;19932;-73
2023/03/09 12:55:20;;;;;;;;;;;5.60;87.80;;;;;;5011291;28;19913;-73
2023/03/09 12:57:46;;;;;;;;;;;5.70;87.50;;;;;;5011093;28;19999;-73
2023/03/09 13:00:18;;;;;;;;;;;5.50;87.60;;;;;;5009444;28;20307;-74
2023/03/09 13:02:48;;;;;;;;;;;5.70;87.90;;;;;;5007886;28;19913;-73
2023/03/09 13:05:21;;;;;;;;;;;5.60;87.90;;;;;;5008890;28;19971;-73
2023/03/09 13:08:05;;;;;;;;;;;5.80;88.30;;;;;;5003123;28;19914;-73
2023/03/09 13:10:31;;;;;;;;;;;5.70;87.90;;;;;;5016734;28;19920;-73
2023/03/09 13:13:16;;;;;;;;;;;5.80;88.30;;;;;;5030664;28;19917;-75
2023/03/09 13:15:41;;;;;;;;;;;5.80;88.00;;;;;;5023708;28;19995;-73
2023/03/09 13:18:12;;;;;;;;;;;5.90;88.10;;;;;;5012556;28;20332;-73
2023/03/09 13:20:40;;;;;;;;;;;6.10;88.10;;;;;;5026585;28;20012;-73
2023/03/09 13:23:09;;;;;;;;;;;6.00;87.80;;;;;;5025374;28;19920;-74
2023/03/09 13:25:49;;;;;;;;;;;6.10;87.20;;;;;;5027621;28;19924;-74
2023/03/09 13:28:20;;;;;;;;;;;6.00;87.10;;;;;;5024706;28;20372;-74
2023/03/09 13:30:47;;;;;;;;;;;6.10;87.30;;;;;;5025266;28;20008;-74
2023/03/09 13:33:17;;;;;;;;;;;6.10;87.50;;;;;;5027070;28;19925;-74
2023/03/09 13:36:09;;;;;;;;;;;6.00;87.60;;;;;;5003865;28;19913;-74
2023/03/09 13:38:37;;;;;;;;;;;6.10;87.60;;;;;;5001501;28;19967;-73
2023/03/09 13:41:03;;;;;;;;;;;6.00;87.30;;;;;;5026794;28;19955;-74
2023/03/09 13:43:31;;;;;;;;;;;6.00;87.80;;;;;;5030116;28;20024;-73
2023/03/09 13:46:01;;;;;;;;;;;6.00;87.90;;;;;;5010469;28;19937;-73
2023/03/09 13:48:27;;;;;;;;;;;6.00;88.00;;;;;;5020932;28;19924;-74
2023/03/09 13:50:53;;;;;;;;;;;5.90;88.00;;;;;;5009759;28;19925;-74
2023/03/09 13:53:24;;;;;;;;;;;5.70;88.00;;;;;;5012454;28;19963;-74
2023/03/09 13:55:53;;;;;;;;;;;5.80;88.20;;;;;;5026250;28;19952;-74
2023/03/09 13:58:21;;;;;;;;;;;5.90;88.30;;;;;;5025262;28;19924;-72
2023/03/09 14:00:54;;;;;;;;;;;5.80;88.10;;;;;;5025416;28;19920;-72
2023/03/09 14:03:20;;;;;;;;;;;5.60;88.60;;;;;;5010763;28;19936;-73
2023/03/09 14:06:04;;;;;;;;;;;5.60;89.30;;;;;;5029151;28;20008;-73
2023/03/09 14:08:33;;;;;;;;;;;5.40;89.40;;;;;;5018721;28;19921;-73
2023/03/09 14:11:02;;;;;;;;;;;5.30;89.70;;;;;;5020473;28;19921;-72
2023/03/09 14:13:28;;;;;;;;;;;5.10;90.00;;;;;;5006226;28;19924;-72
2023/03/09 14:15:53;;;;;;;;;;;5.10;90.50;;;;;;5019961;28;19992;-76
2023/03/09 14:18:24;;;;;;;;;;;5.10;90.70;;;;;;5023523;28;19924;-72
2023/03/09 14:20:49;;;;;;;;;;;5.10;90.70;;;;;;5023954;28;19913;-73
2023/03/09 14:23:30;;;;;;;;;;;5.00;90.90;;;;;;5022214;28;20568;-72
2023/03/09 14:25:56;;;;;;;;;;;5.00;91.00;;;;;;5007386;28;19961;-72
2023/03/09 14:28:25;;;;;;;;;;;5.00;91.30;;;;;;5027342;28;19913;-72
2023/03/09 14:30:52;;;;;;;;;;;5.10;91.60;;;;;;5003863;28;20444;-72
2023/03/09 14:33:22;;;;;;;;;;;5.10;91.50;;;;;;5011811;28;19979;-72
2023/03/09 14:35:48;;;;;;;;;;;5.00;91.40;;;;;;5026749;28;19920;-73
2023/03/09 14:38:17;;;;;;;;;;;5.00;91.60;;;;;;5014057;28;19913;-73
2023/03/09 14:40:43;;;;;;;;;;;5.00;91.50;;;;;;5028808;28;19957;-73
2023/03/09 14:43:24;;;;;;;;;;;5.00;91.60;;;;;;5004466;28;20384;-73